sensor_id;sensor_type;location;lat;lon;timestamp;pressure;altitude;pressure_sealevel;temperature;humidity
54022;BME280;39936;51.058;17.220;2022-12-26T00:02:11;101556.08;;;6.06;100.00
54022;BME280;39936;51.058;17.220;2022-12-26T00:05:37;101556.58;;;6.14;100.00
54022;BME280;39936;51.058;17.220;2022-12-26T00:09:32;101564.49;;;6.16;100.00
54022;BME280;39936;51.058;17.220;2022-12-26T00:17:22;101563.49;;;6.21;100.00
54022;BME280;39936;51.058;17.220;2022-12-26T00:21:32;101556.05;;;6.20;100.00
54022;BME280;39936;51.058;17.220;2022-12-26T00:24:42;101550.41;;;6.24;100.00
54022;BME280;39936;51.058;17.220;2022-12-26T00:28:14;101527.50;;;6.25;100.00
54022;BME280;39936;51.058;17.220;2022-12-26T00:31:45;101517.52;;;6.25;100.00
54022;BME280;39936;51.058;17.220;2022-12-26T00:36:09;101508.39;;;6.23;100.00
54022;BME280;39936;51.058;17.220;2022-12-26T00:39:33;101508.82;;;6.29;100.00
54022;BME280;39936;51.058;17.220;2022-12-26T00:46:36;101523.91;;;6.37;100.00
54022;BME280;39936;51.058;17.220;2022-12-26T00:49:43;101516.51;;;6.41;100.00
54022;BME280;39936;51.058;17.220;2022-12-26T00:53:11;101508.05;;;6.41;100.00
54022;BME280;39936;51.058;17.220;2022-12-26T00:56:20;101505.43;;;6.39;100.00
54022;BME280;39936;51.058;17.220;2022-12-26T00:59:50;101500.26;;;6.34;100.00
54022;BME280;39936;51.058;17.220;2022-12-26T01:03:46;101500.70;;;6.34;100.00
54022;BME280;39936;51.058;17.220;2022-12-26T01:07:17;101498.01;;;6.34;100.00
54022;BME280;39936;51.058;17.220;2022-12-26T01:11:04;101490.98;;;6.33;100.00
54022;BME280;39936;51.058;17.220;2022-12-26T01:14:20;101488.37;;;6.37;100.00
54022;BME280;39936;51.058;17.220;2022-12-26T01:17:49;101507.05;;;6.39;100.00
54022;BME280;39936;51.058;17.220;2022-12-26T01:21:36;101515.13;;;6.44;100.00
54022;BME280;39936;51.058;17.220;2022-12-26T01:25:07;101515.52;;;6.49;100.00
54022;BME280;39936;51.058;17.220;2022-12-26T01:28:38;101504.16;;;6.53;100.00
54022;BME280;39936;51.058;17.220;2022-12-26T01:32:50;101509.57;;;6.49;100.00
54022;BME280;39936;51.058;17.220;2022-12-26T01:36:21;101493.95;;;6.54;100.00
54022;BME280;39936;51.058;17.220;2022-12-26T01:39:32;101478.55;;;6.49;100.00
54022;BME280;39936;51.058;17.220;2022-12-26T01:43:17;101467.62;;;6.48;100.00
54022;BME280;39936;51.058;17.220;2022-12-26T01:46:50;101480.55;;;6.38;100.00
54022;BME280;39936;51.058;17.220;2022-12-26T01:50:25;101487.66;;;6.20;100.00
54022;BME280;39936;51.058;17.220;2022-12-26T01:54:23;101488.34;;;6.15;100.00
54022;BME280;39936;51.058;17.220;2022-12-26T01:58:09;101491.18;;;6.09;100.00
54022;BME280;39936;51.058;17.220;2022-12-26T02:02:07;101489.88;;;6.04;100.00
54022;BME280;39936;51.058;17.220;2022-12-26T02:05:24;101484.85;;;6.12;100.00
54022;BME280;39936;51.058;17.220;2022-12-26T02:09:10;101487.06;;;6.15;100.00
54022;BME280;39936;51.058;17.220;2022-12-26T02:12:49;101488.94;;;6.14;100.00
54022;BME280;39936;51.058;17.220;2022-12-26T02:15:56;101479.44;;;6.05;100.00
54022;BME280;39936;51.058;17.220;2022-12-26T02:23:20;101482.70;;;6.16;100.00
54022;BME280;39936;51.058;17.220;2022-12-26T02:34:58;101455.26;;;6.30;100.00
54022;BME280;39936;51.058;17.220;2022-12-26T02:39:20;101467.03;;;6.33;100.00
54022;BME280;39936;51.058;17.220;2022-12-26T02:55:33;101409.82;;;6.35;100.00
54022;BME280;39936;51.058;17.220;2022-12-26T03:06:28;101419.90;;;6.08;100.00
54022;BME280;39936;51.058;17.220;2022-12-26T03:10:29;101409.30;;;6.05;100.00
54022;BME280;39936;51.058;17.220;2022-12-26T03:22:08;101429.97;;;6.02;100.00
54022;BME280;39936;51.058;17.220;2022-12-26T03:25:59;101417.94;;;6.10;100.00
54022;BME280;39936;51.058;17.220;2022-12-26T03:29:39;101407.68;;;6.20;100.00
54022;BME280;39936;51.058;17.220;2022-12-26T03:33:38;101407.91;;;6.27;100.00
54022;BME280;39936;51.058;17.220;2022-12-26T03:37:52;101417.65;;;6.33;100.00
54022;BME280;39936;51.058;17.220;2022-12-26T03:41:58;101409.42;;;6.37;100.00
54022;BME280;39936;51.058;17.220;2022-12-26T03:49:46;101399.19;;;6.41;100.00
54022;BME280;39936;51.058;17.220;2022-12-26T03:54:12;101399.61;;;6.42;100.00
54022;BME280;39936;51.058;17.220;2022-12-26T03:58:24;101391.39;;;6.41;100.00
54022;BME280;39936;51.058;17.220;2022-12-26T04:01:49;101388.86;;;6.32;100.00
54022;BME280;39936;51.058;17.220;2022-12-26T04:05:29;101394.35;;;6.36;100.00
54022;BME280;39936;51.058;17.220;2022-12-26T04:13:17;101383.02;;;6.68;100.00
54022;BME280;39936;51.058;17.220;2022-12-26T04:25:59;101385.13;;;7.26;100.00
54022;BME280;39936;51.058;17.220;2022-12-26T04:30:03;101377.17;;;7.32;100.00
54022;BME280;39936;51.058;17.220;2022-12-26T04:33:51;101376.96;;;7.40;100.00
54022;BME280;39936;51.058;17.220;2022-12-26T04:37:40;101377.58;;;7.46;100.00
54022;BME280;39936;51.058;17.220;2022-12-26T04:41:21;101379.89;;;7.46;100.00
54022;BME280;39936;51.058;17.220;2022-12-26T04:53:11;101365.16;;;7.51;100.00
54022;BME280;39936;51.058;17.220;2022-12-26T04:56:41;101368.16;;;7.55;100.00
54022;BME280;39936;51.058;17.220;2022-12-26T05:00:13;101377.67;;;7.60;100.00
54022;BME280;39936;51.058;17.220;2022-12-26T05:04:14;101385.66;;;7.69;100.00
54022;BME280;39936;51.058;17.220;2022-12-26T05:07:48;101355.91;;;7.66;100.00
54022;BME280;39936;51.058;17.220;2022-12-26T05:11:12;101372.62;;;7.67;100.00
54022;BME280;39936;51.058;17.220;2022-12-26T05:14:46;101358.23;;;7.68;100.00
54022;BME280;39936;51.058;17.220;2022-12-26T05:18:16;101355.16;;;7.67;100.00
54022;BME280;39936;51.058;17.220;2022-12-26T05:25:50;101345.35;;;7.57;100.00
54022;BME280;39936;51.058;17.220;2022-12-26T05:29:41;101344.75;;;7.55;100.00
54022;BME280;39936;51.058;17.220;2022-12-26T05:37:00;101351.28;;;7.54;100.00
54022;BME280;39936;51.058;17.220;2022-12-26T05:40:38;101358.16;;;7.55;100.00
54022;BME280;39936;51.058;17.220;2022-12-26T05:44:02;101351.59;;;7.59;100.00
54022;BME280;39936;51.058;17.220;2022-12-26T05:47:36;101336.72;;;7.61;100.00
54022;BME280;39936;51.058;17.220;2022-12-26T05:50:46;101348.60;;;7.63;100.00
54022;BME280;39936;51.058;17.220;2022-12-26T05:54:36;101354.80;;;7.61;100.00
54022;BME280;39936;51.058;17.220;2022-12-26T05:58:06;101349.66;;;7.63;100.00
54022;BME280;39936;51.058;17.220;2022-12-26T06:02:13;101360.91;;;7.64;100.00
54022;BME280;39936;51.058;17.220;2022-12-26T06:05:36;101373.80;;;7.68;100.00
54022;BME280;39936;51.058;17.220;2022-12-26T06:09:17;101379.34;;;7.69;100.00
54022;BME280;39936;51.058;17.220;2022-12-26T06:12:47;101368.70;;;7.68;100.00
54022;BME280;39936;51.058;17.220;2022-12-26T06:20:08;101365.20;;;7.66;100.00
54022;BME280;39936;51.058;17.220;2022-12-26T06:23:46;101374.52;;;7.68;100.00
54022;BME280;39936;51.058;17.220;2022-12-26T06:27:26;101381.14;;;7.70;100.00
54022;BME280;39936;51.058;17.220;2022-12-26T06:31:03;101377.49;;;7.70;100.00
54022;BME280;39936;51.058;17.220;2022-12-26T06:34:47;101370.30;;;7.72;100.00
54022;BME280;39936;51.058;17.220;2022-12-26T06:38:33;101384.41;;;7.70;100.00
54022;BME280;39936;51.058;17.220;2022-12-26T06:41:51;101386.70;;;7.70;100.00
54022;BME280;39936;51.058;17.220;2022-12-26T06:45:19;101358.59;;;7.57;100.00
54022;BME280;39936;51.058;17.220;2022-12-26T06:48:51;101398.38;;;7.80;100.00
54022;BME280;39936;51.058;17.220;2022-12-26T06:52:35;101405.62;;;7.85;100.00
54022;BME280;39936;51.058;17.220;2022-12-26T06:56:04;101388.41;;;7.89;100.00
54022;BME280;39936;51.058;17.220;2022-12-26T06:59:35;101393.16;;;7.91;100.00
54022;BME280;39936;51.058;17.220;2022-12-26T07:02:58;101395.25;;;7.90;100.00
54022;BME280;39936;51.058;17.220;2022-12-26T07:07:09;101400.41;;;7.88;100.00
54022;BME280;39936;51.058;17.220;2022-12-26T07:10:58;101404.91;;;7.78;100.00
54022;BME280;39936;51.058;17.220;2022-12-26T07:14:42;101399.15;;;7.73;100.00
54022;BME280;39936;51.058;17.220;2022-12-26T07:18:35;101408.91;;;7.70;100.00
54022;BME280;39936;51.058;17.220;2022-12-26T07:22:22;101398.37;;;7.62;100.00
54022;BME280;39936;51.058;17.220;2022-12-26T07:25:54;101408.41;;;7.78;100.00
54022;BME280;39936;51.058;17.220;2022-12-26T07:29:58;101412.27;;;7.85;100.00
54022;BME280;39936;51.058;17.220;2022-12-26T07:33:52;101417.65;;;8.02;100.00
54022;BME280;39936;51.058;17.220;2022-12-26T07:37:44;101398.49;;;8.14;100.00
54022;BME280;39936;51.058;17.220;2022-12-26T07:44:45;101409.02;;;8.34;100.00
54022;BME280;39936;51.058;17.220;2022-12-26T07:48:32;101398.15;;;8.44;100.00
54022;BME280;39936;51.058;17.220;2022-12-26T07:52:01;101387.03;;;8.54;100.00
54022;BME280;39936;51.058;17.220;2022-12-26T07:55:30;101385.90;;;8.66;100.00
54022;BME280;39936;51.058;17.220;2022-12-26T07:58:41;101396.69;;;8.76;100.00
54022;BME280;39936;51.058;17.220;2022-12-26T08:02:19;101412.85;;;8.81;100.00
54022;BME280;39936;51.058;17.220;2022-12-26T08:06:16;101404.95;;;8.87;100.00
54022;BME280;39936;51.058;17.220;2022-12-26T08:09:53;101398.23;;;8.94;100.00
54022;BME280;39936;51.058;17.220;2022-12-26T08:13:37;101389.52;;;8.95;100.00
54022;BME280;39936;51.058;17.220;2022-12-26T08:17:16;101400.59;;;9.00;100.00
54022;BME280;39936;51.058;17.220;2022-12-26T08:20:36;101395.69;;;9.08;100.00
54022;BME280;39936;51.058;17.220;2022-12-26T08:24:18;101402.55;;;9.13;100.00
54022;BME280;39936;51.058;17.220;2022-12-26T08:27:58;101406.57;;;9.18;100.00
54022;BME280;39936;51.058;17.220;2022-12-26T08:31:49;101408.43;;;9.19;100.00
54022;BME280;39936;51.058;17.220;2022-12-26T08:35:27;101407.34;;;9.19;100.00
54022;BME280;39936;51.058;17.220;2022-12-26T08:38:58;101408.53;;;9.21;100.00
54022;BME280;39936;51.058;17.220;2022-12-26T08:42:51;101386.39;;;8.98;100.00
54022;BME280;39936;51.058;17.220;2022-12-26T08:46:08;101408.92;;;9.01;100.00
54022;BME280;39936;51.058;17.220;2022-12-26T08:49:18;101400.76;;;8.96;100.00
54022;BME280;39936;51.058;17.220;2022-12-26T08:53:10;101406.44;;;8.99;100.00
54022;BME280;39936;51.058;17.220;2022-12-26T08:56:42;101414.94;;;9.01;100.00
54022;BME280;39936;51.058;17.220;2022-12-26T09:00:22;101414.32;;;9.02;100.00
54022;BME280;39936;51.058;17.220;2022-12-26T09:03:30;101407.87;;;9.01;100.00
54022;BME280;39936;51.058;17.220;2022-12-26T09:06:59;101418.55;;;9.01;100.00
54022;BME280;39936;51.058;17.220;2022-12-26T09:10:10;101424.02;;;8.99;100.00
54022;BME280;39936;51.058;17.220;2022-12-26T09:13:27;101426.12;;;8.94;100.00
54022;BME280;39936;51.058;17.220;2022-12-26T09:17:19;101433.08;;;8.90;100.00
54022;BME280;39936;51.058;17.220;2022-12-26T09:21:14;101435.02;;;8.94;100.00
54022;BME280;39936;51.058;17.220;2022-12-26T09:25:01;101432.38;;;9.03;100.00
54022;BME280;39936;51.058;17.220;2022-12-26T09:28:23;101419.16;;;9.16;100.00
54022;BME280;39936;51.058;17.220;2022-12-26T09:31:40;101423.45;;;9.45;100.00
54022;BME280;39936;51.058;17.220;2022-12-26T09:35:10;101427.26;;;9.71;100.00
54022;BME280;39936;51.058;17.220;2022-12-26T09:38:39;101431.20;;;9.94;100.00
54022;BME280;39936;51.058;17.220;2022-12-26T09:42:53;101430.93;;;10.00;98.49
54022;BME280;39936;51.058;17.220;2022-12-26T09:46:49;101430.60;;;10.00;97.56
54022;BME280;39936;51.058;17.220;2022-12-26T09:50:23;101426.76;;;10.04;97.24
54022;BME280;39936;51.058;17.220;2022-12-26T09:54:04;101437.37;;;10.08;97.11
54022;BME280;39936;51.058;17.220;2022-12-26T09:57:50;101436.17;;;10.16;96.32
54022;BME280;39936;51.058;17.220;2022-12-26T10:01:30;101427.82;;;10.26;96.44
54022;BME280;39936;51.058;17.220;2022-12-26T10:04:45;101439.28;;;10.39;95.03
54022;BME280;39936;51.058;17.220;2022-12-26T10:15:44;101403.86;;;10.76;94.99
54022;BME280;39936;51.058;17.220;2022-12-26T10:19:26;101404.76;;;10.84;93.34
54022;BME280;39936;51.058;17.220;2022-12-26T10:23:35;101406.35;;;10.88;93.44
54022;BME280;39936;51.058;17.220;2022-12-26T10:34:48;101389.02;;;10.94;94.38
54022;BME280;39936;51.058;17.220;2022-12-26T10:42:02;101382.95;;;10.99;94.08
54022;BME280;39936;51.058;17.220;2022-12-26T10:49:14;101378.73;;;10.93;93.84
54022;BME280;39936;51.058;17.220;2022-12-26T10:52:46;101380.61;;;10.77;94.12
54022;BME280;39936;51.058;17.220;2022-12-26T10:56:20;101374.89;;;10.69;93.93
54022;BME280;39936;51.058;17.220;2022-12-26T10:59:53;101385.85;;;10.62;94.47
54022;BME280;39936;51.058;17.220;2022-12-26T11:03:26;101376.30;;;10.58;94.10
54022;BME280;39936;51.058;17.220;2022-12-26T11:07:10;101373.75;;;10.56;94.94
54022;BME280;39936;51.058;17.220;2022-12-26T11:11:22;101376.91;;;10.36;96.10
54022;BME280;39936;51.058;17.220;2022-12-26T11:22:49;101380.38;;;10.33;96.56
54022;BME280;39936;51.058;17.220;2022-12-26T11:27:17;101383.73;;;10.47;96.64
54022;BME280;39936;51.058;17.220;2022-12-26T11:30:30;101373.63;;;10.64;95.24
54022;BME280;39936;51.058;17.220;2022-12-26T11:33:45;101363.87;;;10.75;94.45
54022;BME280;39936;51.058;17.220;2022-12-26T11:37:44;101363.61;;;10.85;93.72
54022;BME280;39936;51.058;17.220;2022-12-26T11:41:13;101362.66;;;11.03;93.71
54022;BME280;39936;51.058;17.220;2022-12-26T11:45:11;101367.31;;;11.13;92.78
54022;BME280;39936;51.058;17.220;2022-12-26T11:54:01;101342.09;;;11.21;92.09
54022;BME280;39936;51.058;17.220;2022-12-26T11:57:29;101333.41;;;11.23;91.34
54022;BME280;39936;51.058;17.220;2022-12-26T12:08:38;101319.16;;;11.19;90.66
54022;BME280;39936;51.058;17.220;2022-12-26T12:30:57;101324.48;;;11.01;91.23
54022;BME280;39936;51.058;17.220;2022-12-26T12:35:05;101327.30;;;11.11;91.13
54022;BME280;39936;51.058;17.220;2022-12-26T15:03:16;101354.61;;;10.26;94.30
54022;BME280;39936;51.058;17.220;2022-12-26T15:54:23;101371.30;;;9.97;97.94
54022;BME280;39936;51.058;17.220;2022-12-26T15:57:56;101356.88;;;9.94;98.35
54022;BME280;39936;51.058;17.220;2022-12-26T16:01:45;101360.34;;;9.90;98.75
54022;BME280;39936;51.058;17.220;2022-12-26T16:14:00;101355.23;;;9.92;99.60
54022;BME280;39936;51.058;17.220;2022-12-26T16:17:21;101357.15;;;9.94;99.68
54022;BME280;39936;51.058;17.220;2022-12-26T16:21:11;101358.87;;;9.94;99.96
54022;BME280;39936;51.058;17.220;2022-12-26T16:24:52;101366.77;;;9.94;100.00
54022;BME280;39936;51.058;17.220;2022-12-26T16:35:37;101387.55;;;9.95;100.00
54022;BME280;39936;51.058;17.220;2022-12-26T16:39:37;101394.09;;;9.95;100.00
54022;BME280;39936;51.058;17.220;2022-12-26T16:43:08;101409.01;;;9.89;100.00
54022;BME280;39936;51.058;17.220;2022-12-26T16:46:28;101436.02;;;9.94;100.00
54022;BME280;39936;51.058;17.220;2022-12-26T16:53:42;101441.23;;;9.69;100.00
54022;BME280;39936;51.058;17.220;2022-12-26T16:57:19;101442.45;;;9.44;100.00
54022;BME280;39936;51.058;17.220;2022-12-26T17:00:28;101445.60;;;9.32;100.00
54022;BME280;39936;51.058;17.220;2022-12-26T17:04:04;101447.09;;;9.26;100.00
54022;BME280;39936;51.058;17.220;2022-12-26T17:07:19;101451.78;;;9.23;100.00
54022;BME280;39936;51.058;17.220;2022-12-26T17:10:51;101456.77;;;9.21;100.00
54022;BME280;39936;51.058;17.220;2022-12-26T17:14:02;101462.23;;;9.19;100.00
54022;BME280;39936;51.058;17.220;2022-12-26T17:21:29;101465.30;;;9.21;100.00
54022;BME280;39936;51.058;17.220;2022-12-26T17:25:22;101455.09;;;9.13;100.00
54022;BME280;39936;51.058;17.220;2022-12-26T17:29:17;101471.16;;;9.20;100.00
54022;BME280;39936;51.058;17.220;2022-12-26T17:35:55;101470.77;;;9.14;100.00
54022;BME280;39936;51.058;17.220;2022-12-26T17:43:34;101469.96;;;9.12;100.00
54022;BME280;39936;51.058;17.220;2022-12-26T17:47:28;101471.59;;;9.09;100.00
54022;BME280;39936;51.058;17.220;2022-12-26T17:54:52;101476.98;;;8.99;100.00
54022;BME280;39936;51.058;17.220;2022-12-26T18:02:27;101478.54;;;9.01;100.00
54022;BME280;39936;51.058;17.220;2022-12-26T18:06:05;101479.30;;;9.00;100.00
54022;BME280;39936;51.058;17.220;2022-12-26T18:13:14;101478.70;;;8.97;100.00
54022;BME280;39936;51.058;17.220;2022-12-26T18:16:45;101474.34;;;8.85;100.00
54022;BME280;39936;51.058;17.220;2022-12-26T18:21:02;101480.00;;;8.78;100.00
54022;BME280;39936;51.058;17.220;2022-12-26T18:25:29;101473.98;;;8.78;100.00
54022;BME280;39936;51.058;17.220;2022-12-26T18:28:44;101464.14;;;8.73;100.00
54022;BME280;39936;51.058;17.220;2022-12-26T18:32:01;101486.59;;;8.87;100.00
54022;BME280;39936;51.058;17.220;2022-12-26T18:35:27;101490.92;;;8.89;100.00
54022;BME280;39936;51.058;17.220;2022-12-26T18:38:58;101481.34;;;8.87;100.00
54022;BME280;39936;51.058;17.220;2022-12-26T18:42:30;101486.31;;;8.77;100.00
54022;BME280;39936;51.058;17.220;2022-12-26T18:46:39;101491.82;;;8.75;100.00
54022;BME280;39936;51.058;17.220;2022-12-26T18:50:12;101496.97;;;8.67;100.00
54022;BME280;39936;51.058;17.220;2022-12-26T18:53:28;101493.23;;;8.63;100.00
54022;BME280;39936;51.058;17.220;2022-12-26T19:01:00;101490.02;;;8.57;100.00
54022;BME280;39936;51.058;17.220;2022-12-26T19:05:08;101481.88;;;8.53;100.00
54022;BME280;39936;51.058;17.220;2022-12-26T19:09:15;101483.93;;;8.50;100.00
54022;BME280;39936;51.058;17.220;2022-12-26T19:12:58;101477.11;;;8.48;100.00
54022;BME280;39936;51.058;17.220;2022-12-26T19:17:13;101477.60;;;8.48;100.00
54022;BME280;39936;51.058;17.220;2022-12-26T19:24:25;101473.02;;;8.39;100.00
54022;BME280;39936;51.058;17.220;2022-12-26T19:31:41;101475.65;;;8.29;100.00
54022;BME280;39936;51.058;17.220;2022-12-26T19:35:22;101479.40;;;8.16;100.00
54022;BME280;39936;51.058;17.220;2022-12-26T19:39:29;101479.97;;;8.15;100.00
54022;BME280;39936;51.058;17.220;2022-12-26T19:43:45;101485.41;;;8.16;100.00
54022;BME280;39936;51.058;17.220;2022-12-26T19:47:31;101480.45;;;8.14;100.00
54022;BME280;39936;51.058;17.220;2022-12-26T19:51:42;101479.51;;;8.11;100.00
54022;BME280;39936;51.058;17.220;2022-12-26T19:55:44;101485.70;;;8.10;100.00
54022;BME280;39936;51.058;17.220;2022-12-26T19:59:07;101495.04;;;8.09;100.00
54022;BME280;39936;51.058;17.220;2022-12-26T20:03:15;101497.02;;;8.07;100.00
54022;BME280;39936;51.058;17.220;2022-12-26T20:07:35;101501.96;;;8.03;100.00
54022;BME280;39936;51.058;17.220;2022-12-26T20:10:51;101504.13;;;7.93;100.00
54022;BME280;39936;51.058;17.220;2022-12-26T20:18:42;101493.58;;;7.68;100.00
54022;BME280;39936;51.058;17.220;2022-12-26T20:21:53;101481.30;;;7.64;100.00
54022;BME280;39936;51.058;17.220;2022-12-26T20:25:22;101480.30;;;7.61;100.00
54022;BME280;39936;51.058;17.220;2022-12-26T20:28:36;101485.41;;;7.52;100.00
54022;BME280;39936;51.058;17.220;2022-12-26T20:32:09;101494.95;;;7.40;100.00
54022;BME280;39936;51.058;17.220;2022-12-26T20:36:11;101502.85;;;7.33;100.00
54022;BME280;39936;51.058;17.220;2022-12-26T20:39:50;101492.84;;;7.37;100.00
54022;BME280;39936;51.058;17.220;2022-12-26T20:43:13;101481.70;;;7.39;100.00
54022;BME280;39936;51.058;17.220;2022-12-26T20:46:28;101487.88;;;7.33;100.00
54022;BME280;39936;51.058;17.220;2022-12-26T20:50:15;101483.26;;;7.37;100.00
54022;BME280;39936;51.058;17.220;2022-12-26T20:53:55;101483.08;;;7.38;100.00
54022;BME280;39936;51.058;17.220;2022-12-26T20:57:15;101464.02;;;7.43;100.00
54022;BME280;39936;51.058;17.220;2022-12-26T21:01:01;101458.30;;;7.42;100.00
54022;BME280;39936;51.058;17.220;2022-12-26T21:04:46;101455.30;;;7.47;100.00
54022;BME280;39936;51.058;17.220;2022-12-26T21:08:22;101460.20;;;7.41;100.00
54022;BME280;39936;51.058;17.220;2022-12-26T21:11:44;101458.30;;;7.42;100.00
54022;BME280;39936;51.058;17.220;2022-12-26T21:15:28;101451.50;;;7.50;100.00
54022;BME280;39936;51.058;17.220;2022-12-26T21:18:45;101452.03;;;7.59;100.00
54022;BME280;39936;51.058;17.220;2022-12-26T21:21:56;101458.68;;;7.69;100.00
54022;BME280;39936;51.058;17.220;2022-12-26T21:25:18;101456.14;;;7.75;100.00
54022;BME280;39936;51.058;17.220;2022-12-26T21:28:28;101464.09;;;7.77;100.00
54022;BME280;39936;51.058;17.220;2022-12-26T21:31:44;101434.47;;;7.57;100.00
54022;BME280;39936;51.058;17.220;2022-12-26T21:34:52;101462.41;;;7.83;100.00
54022;BME280;39936;51.058;17.220;2022-12-26T21:38:57;101462.77;;;7.81;100.00
54022;BME280;39936;51.058;17.220;2022-12-26T21:42:10;101466.84;;;7.87;100.00
54022;BME280;39936;51.058;17.220;2022-12-26T21:45:23;101461.02;;;7.97;100.00
54022;BME280;39936;51.058;17.220;2022-12-26T21:48:42;101463.58;;;8.01;100.00
54022;BME280;39936;51.058;17.220;2022-12-26T21:51:57;101464.77;;;8.06;100.00
54022;BME280;39936;51.058;17.220;2022-12-26T21:55:17;101470.01;;;8.09;100.00
54022;BME280;39936;51.058;17.220;2022-12-26T21:58:49;101473.98;;;8.11;100.00
54022;BME280;39936;51.058;17.220;2022-12-26T22:02:37;101464.10;;;8.11;100.00
54022;BME280;39936;51.058;17.220;2022-12-26T22:06:42;101453.62;;;8.10;100.00
54022;BME280;39936;51.058;17.220;2022-12-26T22:10:08;101445.59;;;8.07;100.00
54022;BME280;39936;51.058;17.220;2022-12-26T22:13:50;101437.53;;;8.10;100.00
54022;BME280;39936;51.058;17.220;2022-12-26T22:17:22;101437.28;;;8.10;100.00
54022;BME280;39936;51.058;17.220;2022-12-26T22:20:59;101448.45;;;8.07;100.00
54022;BME280;39936;51.058;17.220;2022-12-26T22:24:20;101447.20;;;8.04;100.00
54022;BME280;39936;51.058;17.220;2022-12-26T22:27:52;101457.03;;;8.08;100.00
54022;BME280;39936;51.058;17.220;2022-12-26T22:31:26;101462.21;;;8.07;100.00
54022;BME280;39936;51.058;17.220;2022-12-26T22:34:58;101444.38;;;7.89;100.00
54022;BME280;39936;51.058;17.220;2022-12-26T22:39:04;101467.45;;;7.96;100.00
54022;BME280;39936;51.058;17.220;2022-12-26T22:42:43;101474.34;;;8.02;100.00
54022;BME280;39936;51.058;17.220;2022-12-26T22:46:00;101477.04;;;8.03;100.00
54022;BME280;39936;51.058;17.220;2022-12-26T22:49:29;101478.23;;;8.04;100.00
54022;BME280;39936;51.058;17.220;2022-12-26T22:53:03;101472.21;;;8.03;100.00
54022;BME280;39936;51.058;17.220;2022-12-26T22:56:17;101464.36;;;8.04;100.00
54022;BME280;39936;51.058;17.220;2022-12-26T23:00:14;101475.32;;;8.04;100.00
54022;BME280;39936;51.058;17.220;2022-12-26T23:03:55;101481.90;;;8.05;100.00
54022;BME280;39936;51.058;17.220;2022-12-26T23:07:25;101483.13;;;8.03;100.00
54022;BME280;39936;51.058;17.220;2022-12-26T23:11:38;101481.81;;;7.98;100.00
54022;BME280;39936;51.058;17.220;2022-12-26T23:15:09;101501.09;;;7.97;100.00
54022;BME280;39936;51.058;17.220;2022-12-26T23:19:17;101505.08;;;7.90;100.00
54022;BME280;39936;51.058;17.220;2022-12-26T23:22:59;101514.61;;;7.86;100.00
54022;BME280;39936;51.058;17.220;2022-12-26T23:26:28;101521.66;;;7.85;100.00
54022;BME280;39936;51.058;17.220;2022-12-26T23:29:39;101523.07;;;7.79;100.00
54022;BME280;39936;51.058;17.220;2022-12-26T23:34:16;101543.49;;;7.78;100.00
54022;BME280;39936;51.058;17.220;2022-12-26T23:38:18;101558.06;;;7.82;100.00
54022;BME280;39936;51.058;17.220;2022-12-26T23:41:50;101557.16;;;7.69;100.00
54022;BME280;39936;51.058;17.220;2022-12-26T23:45:10;101561.98;;;7.48;100.00
54022;BME280;39936;51.058;17.220;2022-12-26T23:48:51;101558.66;;;7.32;100.00
54022;BME280;39936;51.058;17.220;2022-12-26T23:52:00;101558.17;;;7.19;100.00
54022;BME280;39936;51.058;17.220;2022-12-26T23:56:09;101526.77;;;7.11;100.00
